Time;durP1;ratioP1;P1;durP2;ratioP2;P2;SDS_P1;SDS_P2;PMS_P1;PMS_P2;Temp;Humidity;BMP_temperature;BMP_pressure;BME280_temperature;BME280_humidity;BME280_pressure;Samples;Min_cycle;Max_cycle;Signal;HPM_P1;HPM_P2
2022/07/25 00:00:09;;;;;;;4.60;3.03;;;;;;;;;;5096316;28;20039;-69
2022/07/25 00:02:35;;;;;;;3.63;2.80;;;;;;;;;;5090696;28;20097;-69
2022/07/25 00:05:02;;;;;;;5.28;2.90;;;;;;;;;;5102852;27;20119;-69
2022/07/25 00:07:28;;;;;;;4.32;2.75;;;;;;;;;;5090424;28;20040;-70
2022/07/25 00:09:55;;;;;;;4.05;3.30;;;;;;;;;;5092895;28;20039;-69
2022/07/25 00:12:21;;;;;;;5.82;3.17;;;;;;;;;;5093187;28;20063;-69
2022/07/25 00:14:47;;;;;;;6.28;3.50;;;;;;;;;;5091198;28;20042;-69
2022/07/25 00:17:14;;;;;;;5.00;3.78;;;;;;;;;;5095014;28;20047;-69
2022/07/25 00:19:40;;;;;;;4.55;3.90;;;;;;;;;;5095060;28;20035;-69
2022/07/25 00:22:06;;;;;;;4.50;3.55;;;;;;;;;;5090481;28;20127;-69
2022/07/25 00:24:32;;;;;;;6.00;4.40;;;;;;;;;;5091217;28;20079;-69
2022/07/25 00:26:59;;;;;;;7.78;4.97;;;;;;;;;;5104974;27;20263;-69
2022/07/25 00:29:25;;;;;;;8.68;4.78;;;;;;;;;;5078675;28;20062;-69
2022/07/25 00:31:51;;;;;;;5.25;4.22;;;;;;;;;;5065831;28;20045;-70
2022/07/25 00:34:18;;;;;;;5.63;4.25;;;;;;;;;;5088825;28;20044;-70
2022/07/25 00:36:44;;;;;;;6.32;3.78;;;;;;;;;;5093192;28;20028;-70
2022/07/25 00:39:10;;;;;;;7.53;5.25;;;;;;;;;;5077433;28;20047;-69
2022/07/25 00:41:36;;;;;;;4.80;4.20;;;;;;;;;;5091038;28;20533;-70
2022/07/25 00:44:03;;;;;;;5.82;4.15;;;;;;;;;;5089990;28;20055;-69
2022/07/25 00:46:29;;;;;;;7.85;4.85;;;;;;;;;;5069679;28;20036;-70
2022/07/25 00:48:55;;;;;;;6.05;4.15;;;;;;;;;;5094620;28;20048;-70
2022/07/25 00:51:21;;;;;;;6.63;4.45;;;;;;;;;;5087461;28;20491;-70
2022/07/25 00:53:48;;;;;;;5.53;4.05;;;;;;;;;;5088840;28;20044;-69
2022/07/25 00:56:15;;;;;;;6.15;4.05;;;;;;;;;;5089713;28;20430;-70
2022/07/25 00:58:41;;;;;;;8.20;4.88;;;;;;;;;;5091182;28;20025;-70
2022/07/25 01:01:07;;;;;;;5.40;4.03;;;;;;;;;;5090646;28;20075;-70
2022/07/25 01:03:33;;;;;;;6.38;4.20;;;;;;;;;;5058891;28;20044;-70
2022/07/25 01:06:00;;;;;;;6.53;4.65;;;;;;;;;;5088916;28;20090;-70
2022/07/25 01:08:26;;;;;;;6.13;4.32;;;;;;;;;;5094129;28;20497;-70
2022/07/25 01:10:52;;;;;;;6.00;4.07;;;;;;;;;;5090059;28;20076;-70
2022/07/25 01:13:18;;;;;;;4.53;4.00;;;;;;;;;;5080792;28;20075;-70
2022/07/25 01:15:44;;;;;;;6.32;4.15;;;;;;;;;;5099584;27;20537;-70
2022/07/25 01:18:11;;;;;;;5.20;3.85;;;;;;;;;;5108916;27;20047;-69
2022/07/25 01:20:37;;;;;;;5.70;3.80;;;;;;;;;;5093947;28;20039;-70
2022/07/25 01:23:03;;;;;;;4.75;3.95;;;;;;;;;;5093620;28;20043;-69
2022/07/25 01:25:29;;;;;;;5.68;4.22;;;;;;;;;;5071722;28;20054;-69
2022/07/25 01:27:56;;;;;;;6.97;4.95;;;;;;;;;;5091197;28;20045;-69
2022/07/25 01:30:23;;;;;;;5.97;4.53;;;;;;;;;;5098369;28;20551;-70
2022/07/25 01:32:49;;;;;;;6.22;4.80;;;;;;;;;;5092431;28;20039;-69
2022/07/25 01:35:16;;;;;;;5.32;4.40;;;;;;;;;;5090342;28;20119;-70
2022/07/25 01:37:42;;;;;;;4.78;4.28;;;;;;;;;;5073368;28;20118;-70
2022/07/25 01:40:08;;;;;;;7.03;4.85;;;;;;;;;;5093878;28;20405;-70
2022/07/25 01:42:35;;;;;;;6.57;5.28;;;;;;;;;;5091820;28;20028;-69
2022/07/25 01:45:03;;;;;;;5.57;3.83;;;;;;;;;;5091218;28;20036;-70
2022/07/25 01:47:29;;;;;;;5.88;4.07;;;;;;;;;;5107282;27;20044;-70
2022/07/25 01:49:55;;;;;;;5.22;4.43;;;;;;;;;;5091592;28;20078;-70
2022/07/25 01:52:21;;;;;;;5.43;3.92;;;;;;;;;;5074815;28;20051;-70
2022/07/25 01:54:47;;;;;;;5.20;3.90;;;;;;;;;;5086345;28;20057;-70
2022/07/25 01:57:13;;;;;;;6.25;4.68;;;;;;;;;;5102058;28;20393;-70
2022/07/25 01:59:40;;;;;;;5.40;4.38;;;;;;;;;;5090121;28;20040;-70
2022/07/25 02:02:06;;;;;;;5.35;3.92;;;;;;;;;;5092178;28;20100;-70
2022/07/25 02:04:33;;;;;;;4.75;3.70;;;;;;;;;;5089672;28;20047;-70
2022/07/25 02:06:59;;;;;;;4.47;3.20;;;;;;;;;;5074362;28;20088;-70
2022/07/25 02:09:26;;;;;;;8.15;4.57;;;;;;;;;;5091808;28;20032;-70
2022/07/25 02:11:52;;;;;;;7.85;3.72;;;;;;;;;;5095520;28;20425;-69
2022/07/25 02:14:18;;;;;;;5.82;4.13;;;;;;;;;;5088537;28;20042;-69
2022/07/25 02:16:44;;;;;;;7.25;4.50;;;;;;;;;;5079090;28;20481;-70
2022/07/25 02:19:11;;;;;;;5.97;4.88;;;;;;;;;;5088803;28;20040;-69
2022/07/25 02:21:37;;;;;;;6.40;4.68;;;;;;;;;;5091880;28;20047;-70
2022/07/25 02:24:03;;;;;;;5.10;3.85;;;;;;;;;;5091654;28;20044;-70
2022/07/25 02:26:29;;;;;;;5.07;3.50;;;;;;;;;;5102535;28;20123;-70
2022/07/25 02:28:55;;;;;;;8.95;4.30;;;;;;;;;;5094335;28;20083;-70
2022/07/25 02:31:22;;;;;;;5.95;4.47;;;;;;;;;;5092481;28;20051;-70
2022/07/25 02:33:48;;;;;;;6.35;3.90;;;;;;;;;;5093597;28;20035;-70
2022/07/25 02:36:14;;;;;;;5.65;4.22;;;;;;;;;;5090180;28;20049;-69
2022/07/25 02:38:40;;;;;;;7.45;4.72;;;;;;;;;;5106940;28;20119;-70
2022/07/25 02:41:06;;;;;;;7.45;4.75;;;;;;;;;;5094926;28;20120;-70
2022/07/25 02:43:33;;;;;;;7.15;5.45;;;;;;;;;;5091038;28;20114;-70
2022/07/25 02:45:59;;;;;;;6.75;4.25;;;;;;;;;;5065791;28;20123;-70
2022/07/25 02:48:25;;;;;;;6.00;4.43;;;;;;;;;;5099818;28;20044;-70
2022/07/25 02:50:51;;;;;;;4.60;3.72;;;;;;;;;;5106795;28;20344;-69
2022/07/25 02:53:17;;;;;;;5.30;3.92;;;;;;;;;;5088268;28;20044;-70
2022/07/25 02:55:43;;;;;;;6.05;4.68;;;;;;;;;;5056923;28;20123;-69
2022/07/25 02:58:10;;;;;;;7.18;4.43;;;;;;;;;;5089528;28;20216;-70
2022/07/25 03:00:36;;;;;;;8.60;4.95;;;;;;;;;;5092316;28;20047;-69
2022/07/25 03:03:02;;;;;;;6.15;4.60;;;;;;;;;;5091024;28;20039;-69
2022/07/25 03:05:29;;;;;;;6.22;5.45;;;;;;;;;;5090849;28;20040;-70
2022/07/25 03:07:56;;;;;;;6.15;5.28;;;;;;;;;;5091013;28;20278;-70
2022/07/25 03:10:22;;;;;;;6.78;4.95;;;;;;;;;;5093301;28;20060;-71
2022/07/25 03:12:48;;;;;;;5.55;4.30;;;;;;;;;;5090624;28;20040;-71
2022/07/25 03:15:15;;;;;;;6.32;4.80;;;;;;;;;;5083348;28;20118;-70
2022/07/25 03:17:41;;;;;;;6.53;4.32;;;;;;;;;;5087683;28;20047;-70
2022/07/25 03:20:08;;;;;;;8.00;5.75;;;;;;;;;;5109345;27;20048;-70
2022/07/25 03:22:35;;;;;;;6.82;4.38;;;;;;;;;;5095038;28;20521;-70
2022/07/25 03:25:01;;;;;;;5.35;4.65;;;;;;;;;;5094778;28;20043;-71
2022/07/25 03:27:27;;;;;;;5.80;4.38;;;;;;;;;;5094579;28;20067;-70
2022/07/25 03:29:53;;;;;;;6.00;4.95;;;;;;;;;;5110003;27;20075;-70
2022/07/25 03:32:20;;;;;;;7.82;4.82;;;;;;;;;;5086217;28;20130;-70
2022/07/25 03:34:47;;;;;;;6.05;4.38;;;;;;;;;;5088966;28;20044;-70
2022/07/25 03:37:13;;;;;;;5.80;4.78;;;;;;;;;;5088916;28;20039;-70
2022/07/25 03:39:39;;;;;;;6.18;4.20;;;;;;;;;;5081308;28;20109;-71
2022/07/25 03:42:05;;;;;;;5.00;4.43;;;;;;;;;;5095620;28;20036;-70
2022/07/25 03:44:31;;;;;;;7.53;5.43;;;;;;;;;;5093306;28;20051;-71
2022/07/25 03:46:57;;;;;;;6.93;5.30;;;;;;;;;;5092823;28;20040;-70
2022/07/25 03:49:23;;;;;;;5.90;4.70;;;;;;;;;;5089317;28;20067;-70
2022/07/25 03:51:50;;;;;;;7.32;4.57;;;;;;;;;;5091892;28;20052;-70
2022/07/25 03:54:16;;;;;;;7.65;4.90;;;;;;;;;;5094135;28;20043;-70
2022/07/25 03:56:44;;;;;;;5.10;4.43;;;;;;;;;;5093832;28;20067;-70
2022/07/25 03:59:11;;;;;;;5.47;4.40;;;;;;;;;;5071880;28;20040;-71
2022/07/25 04:01:37;;;;;;;6.55;4.65;;;;;;;;;;5074587;28;20521;-70
2022/07/25 04:04:04;;;;;;;7.68;4.63;;;;;;;;;;5091341;28;20131;-71
2022/07/25 04:06:30;;;;;;;6.32;4.55;;;;;;;;;;5093457;28;20127;-71
2022/07/25 04:08:57;;;;;;;8.00;5.03;;;;;;;;;;5093712;28;20546;-70
2022/07/25 04:11:23;;;;;;;6.55;4.65;;;;;;;;;;5109332;27;20093;-70
2022/07/25 04:13:50;;;;;;;6.78;5.22;;;;;;;;;;5094575;28;20054;-71
2022/07/25 04:16:19;;;;;;;8.18;5.50;;;;;;;;;;5090777;28;20039;-71
2022/07/25 04:18:45;;;;;;;6.63;4.95;;;;;;;;;;5093740;28;20156;-70
2022/07/25 04:21:11;;;;;;;5.25;4.35;;;;;;;;;;5085791;28;20040;-71
2022/07/25 04:23:37;;;;;;;7.53;5.55;;;;;;;;;;5095189;28;20088;-71
2022/07/25 04:26:04;;;;;;;6.32;5.13;;;;;;;;;;5090871;28;20270;-71
2022/07/25 04:28:31;;;;;;;6.50;4.97;;;;;;;;;;5074778;28;20040;-71
2022/07/25 04:30:57;;;;;;;6.88;4.93;;;;;;;;;;5089659;28;20398;-71
2022/07/25 04:33:24;;;;;;;7.80;6.00;;;;;;;;;;5095069;28;20031;-70
2022/07/25 04:35:50;;;;;;;7.88;5.32;;;;;;;;;;5088228;28;20265;-71
2022/07/25 04:38:17;;;;;;;8.00;5.97;;;;;;;;;;5076527;28;20048;-70
2022/07/25 04:40:43;;;;;;;6.78;5.80;;;;;;;;;;5096706;27;20091;-70
2022/07/25 04:43:09;;;;;;;8.27;5.75;;;;;;;;;;5086702;28;20039;-71
2022/07/25 04:45:36;;;;;;;7.47;5.93;;;;;;;;;;5093035;28;20048;-70
2022/07/25 04:48:03;;;;;;;6.63;4.97;;;;;;;;;;5092962;28;20506;-71
2022/07/25 04:50:29;;;;;;;10.82;6.18;;;;;;;;;;5106748;27;20051;-71
2022/07/25 04:52:55;;;;;;;8.15;5.50;;;;;;;;;;5104709;28;20120;-70
2022/07/25 04:55:22;;;;;;;9.48;6.85;;;;;;;;;;5102288;27;20048;-70
2022/07/25 04:57:48;;;;;;;6.90;5.93;;;;;;;;;;5090237;28;20047;-70
2022/07/25 05:00:14;;;;;;;8.35;5.15;;;;;;;;;;5092499;28;20477;-70
2022/07/25 05:02:40;;;;;;;9.57;6.10;;;;;;;;;;5077090;28;20083;-71
2022/07/25 05:05:07;;;;;;;9.10;5.85;;;;;;;;;;5087386;28;20136;-71
2022/07/25 05:07:33;;;;;;;7.93;6.00;;;;;;;;;;5082767;28;20509;-71
2022/07/25 05:10:00;;;;;;;8.57;6.28;;;;;;;;;;5085131;28;20455;-70
2022/07/25 05:12:26;;;;;;;9.90;6.72;;;;;;;;;;5098242;28;20050;-70
2022/07/25 05:14:53;;;;;;;18.30;6.88;;;;;;;;;;5087203;28;20096;-70
2022/07/25 05:17:20;;;;;;;7.93;5.82;;;;;;;;;;5085409;28;20041;-70
2022/07/25 05:19:46;;;;;;;8.07;7.07;;;;;;;;;;5089069;28;20036;-70
2022/07/25 05:22:12;;;;;;;8.75;6.35;;;;;;;;;;5101332;28;20055;-70
2022/07/25 05:24:38;;;;;;;8.80;5.88;;;;;;;;;;5091967;28;20051;-68
2022/07/25 05:27:04;;;;;;;7.28;6.10;;;;;;;;;;5090708;28;20189;-68
2022/07/25 05:29:31;;;;;;;7.88;5.28;;;;;;;;;;5084887;28;20043;-68
2022/07/25 05:31:58;;;;;;;10.90;6.60;;;;;;;;;;5078043;28;20144;-68
2022/07/25 05:34:24;;;;;;;9.48;6.72;;;;;;;;;;5083274;28;20082;-68
2022/07/25 05:36:50;;;;;;;12.30;6.70;;;;;;;;;;5084684;28;20505;-68
2022/07/25 05:39:16;;;;;;;8.32;5.65;;;;;;;;;;5086523;28;20040;-68
2022/07/25 05:41:42;;;;;;;9.50;6.97;;;;;;;;;;5098619;27;20521;-68
2022/07/25 05:44:09;;;;;;;9.85;6.30;;;;;;;;;;5091241;28;20043;-68
2022/07/25 05:46:35;;;;;;;10.90;7.32;;;;;;;;;;5087096;28;20417;-68
2022/07/25 05:49:01;;;;;;;9.55;6.82;;;;;;;;;;5089339;28;20509;-68
2022/07/25 05:51:27;;;;;;;11.57;7.38;;;;;;;;;;5085624;28;20056;-68
2022/07/25 05:53:54;;;;;;;9.57;6.32;;;;;;;;;;5090418;28;20063;-68
2022/07/25 05:56:20;;;;;;;7.72;6.55;;;;;;;;;;5087817;28;20040;-68
2022/07/25 05:58:46;;;;;;;9.57;6.88;;;;;;;;;;5086305;28;20043;-68
2022/07/25 06:01:13;;;;;;;10.65;6.70;;;;;;;;;;5069396;28;20040;-68
2022/07/25 06:03:39;;;;;;;12.05;7.90;;;;;;;;;;5089248;28;20098;-68
2022/07/25 06:06:07;;;;;;;10.77;7.45;;;;;;;;;;5086303;28;20475;-69
2022/07/25 06:08:34;;;;;;;8.60;6.47;;;;;;;;;;5084409;28;20087;-69
2022/07/25 06:11:02;;;;;;;10.60;7.80;;;;;;;;;;5086036;28;20094;-69
2022/07/25 06:13:29;;;;;;;8.73;6.43;;;;;;;;;;5105876;28;20036;-69
2022/07/25 06:15:55;;;;;;;8.35;6.32;;;;;;;;;;5087322;28;20482;-70
2022/07/25 06:18:21;;;;;;;8.80;7.35;;;;;;;;;;5086843;28;20047;-69
2022/07/25 06:20:47;;;;;;;12.60;7.57;;;;;;;;;;5085475;28;20553;-69
2022/07/25 06:23:14;;;;;;;8.45;6.70;;;;;;;;;;5103698;28;20115;-69
2022/07/25 06:25:40;;;;;;;9.55;7.45;;;;;;;;;;5088119;28;20485;-69
2022/07/25 06:28:06;;;;;;;10.45;8.10;;;;;;;;;;5087102;28;20042;-69
2022/07/25 06:30:32;;;;;;;9.57;7.35;;;;;;;;;;5104121;28;20048;-69
2022/07/25 06:32:58;;;;;;;9.90;7.22;;;;;;;;;;5103420;28;20097;-69
2022/07/25 06:35:25;;;;;;;9.02;7.03;;;;;;;;;;5083844;28;20039;-69
2022/07/25 06:37:52;;;;;;;7.97;7.03;;;;;;;;;;5097693;28;20035;-69
2022/07/25 06:40:18;;;;;;;14.90;9.05;;;;;;;;;;5086129;28;20430;-69
2022/07/25 06:42:45;;;;;;;10.48;7.45;;;;;;;;;;5080485;28;20570;-69
2022/07/25 06:45:13;;;;;;;11.32;7.65;;;;;;;;;;5080643;28;20040;-69
2022/07/25 06:47:39;;;;;;;12.18;7.88;;;;;;;;;;5097250;28;20150;-69
2022/07/25 06:50:07;;;;;;;9.73;7.93;;;;;;;;;;5095591;28;20044;-69
2022/07/25 06:52:33;;;;;;;11.23;8.63;;;;;;;;;;5083806;28;20517;-69
2022/07/25 06:54:59;;;;;;;10.25;7.28;;;;;;;;;;5089409;28;20078;-69
2022/07/25 06:57:25;;;;;;;11.73;7.43;;;;;;;;;;5085501;28;21003;-69
2022/07/25 06:59:52;;;;;;;10.40;7.50;;;;;;;;;;5091260;28;20055;-69
2022/07/25 07:02:18;;;;;;;9.85;8.05;;;;;;;;;;5085509;28;20128;-69
2022/07/25 07:04:44;;;;;;;9.52;7.25;;;;;;;;;;5089944;28;20078;-69
2022/07/25 07:07:10;;;;;;;9.07;6.82;;;;;;;;;;5092719;28;20040;-69
2022/07/25 07:09:37;;;;;;;10.23;5.97;;;;;;;;;;5090963;28;20043;-69
2022/07/25 07:12:03;;;;;;;11.35;7.25;;;;;;;;;;5089723;28;20123;-69
2022/07/25 07:14:30;;;;;;;10.50;6.72;;;;;;;;;;5099694;27;20052;-69
2022/07/25 07:16:57;;;;;;;8.07;4.97;;;;;;;;;;5088300;28;20035;-69
2022/07/25 07:19:23;;;;;;;8.32;5.28;;;;;;;;;;5081775;28;20045;-69
2022/07/25 07:21:50;;;;;;;7.90;5.53;;;;;;;;;;5078989;28;20047;-69
2022/07/25 07:24:16;;;;;;;7.05;5.15;;;;;;;;;;5087414;28;20053;-69
2022/07/25 07:26:42;;;;;;;10.07;5.47;;;;;;;;;;5085593;28;20126;-69
2022/07/25 07:29:09;;;;;;;6.80;5.07;;;;;;;;;;5088089;28;20090;-69
2022/07/25 07:31:36;;;;;;;8.40;5.28;;;;;;;;;;5088726;28;20040;-69
2022/07/25 07:34:03;;;;;;;4.57;3.30;;;;;;;;;;5086818;28;20044;-69
2022/07/25 07:36:29;;;;;;;7.80;2.95;;;;;;;;;;5085689;28;20043;-69
2022/07/25 07:38:55;;;;;;;2.80;2.10;;;;;;;;;;5088355;27;20151;-69
2022/07/25 07:41:21;;;;;;;4.03;1.70;;;;;;;;;;5064162;28;20040;-69
2022/07/25 07:43:47;;;;;;;4.25;2.35;;;;;;;;;;5086134;28;21347;-69
2022/07/25 07:46:14;;;;;;;3.67;2.35;;;;;;;;;;5066719;28;20043;-69
2022/07/25 07:48:40;;;;;;;4.15;2.38;;;;;;;;;;5086583;28;20328;-69
2022/07/25 07:51:06;;;;;;;5.22;2.13;;;;;;;;;;5087785;28;20044;-69
2022/07/25 07:56:18;;;;;;;6.07;3.30;;;;;;;;;;5081400;28;20409;-69
2022/07/25 07:58:44;;;;;;;7.63;2.25;;;;;;;;;;5084368;28;20042;-69
2022/07/25 08:01:11;;;;;;;9.02;2.65;;;;;;;;;;5084866;28;20066;-69
2022/07/25 08:03:37;;;;;;;5.18;2.67;;;;;;;;;;5085076;28;20383;-69
2022/07/25 08:06:04;;;;;;;5.80;2.75;;;;;;;;;;5084734;27;20404;-69
2022/07/25 08:08:30;;;;;;;5.25;2.97;;;;;;;;;;5087004;28;20522;-69
2022/07/25 08:10:57;;;;;;;5.50;2.50;;;;;;;;;;5082341;28;20040;-69
2022/07/25 08:13:26;;;;;;;6.18;3.05;;;;;;;;;;5087896;28;20048;-69
2022/07/25 08:15:54;;;;;;;4.35;2.45;;;;;;;;;;5081107;28;20115;-69
2022/07/25 08:18:20;;;;;;;5.30;2.45;;;;;;;;;;5089429;28;20047;-69
2022/07/25 08:20:48;;;;;;;4.30;2.30;;;;;;;;;;5082892;28;20201;-69
2022/07/25 08:23:14;;;;;;;3.47;2.00;;;;;;;;;;5086256;28;20036;-69
2022/07/25 08:25:42;;;;;;;3.15;2.10;;;;;;;;;;5083993;28;20594;-69
2022/07/25 08:28:08;;;;;;;10.65;2.40;;;;;;;;;;5099354;27;20048;-69
2022/07/25 08:30:36;;;;;;;6.03;2.10;;;;;;;;;;5085378;28;20075;-69
2022/07/25 08:33:04;;;;;;;4.28;2.42;;;;;;;;;;5086526;28;20235;-69
2022/07/25 08:35:31;;;;;;;6.45;2.40;;;;;;;;;;5078990;28;20535;-69
2022/07/25 08:37:58;;;;;;;2.78;2.15;;;;;;;;;;5100145;28;20040;-69
2022/07/25 08:40:25;;;;;;;6.32;2.80;;;;;;;;;;5080356;28;20047;-69
2022/07/25 08:42:53;;;;;;;4.85;2.70;;;;;;;;;;5080862;28;20036;-69
2022/07/25 08:45:20;;;;;;;3.47;2.20;;;;;;;;;;5088309;28;20036;-69
2022/07/25 08:47:47;;;;;;;4.82;2.30;;;;;;;;;;5085797;28;20065;-69
2022/07/25 08:50:15;;;;;;;3.80;1.70;;;;;;;;;;5090344;27;20048;-69
2022/07/25 08:52:46;;;;;;;3.47;2.20;;;;;;;;;;5091356;28;20526;-69
2022/07/25 08:55:15;;;;;;;6.40;2.85;;;;;;;;;;5086192;28;20089;-69
2022/07/25 08:57:45;;;;;;;4.15;2.13;;;;;;;;;;5084133;28;20040;-69
2022/07/25 09:00:14;;;;;;;5.03;2.65;;;;;;;;;;5087284;28;20517;-69
2022/07/25 09:02:41;;;;;;;3.83;2.10;;;;;;;;;;5094797;28;20256;-69
2022/07/25 09:05:07;;;;;;;5.25;2.30;;;;;;;;;;5067998;28;20048;-69
2022/07/25 09:07:35;;;;;;;4.65;2.17;;;;;;;;;;5084550;28;20044;-69
2022/07/25 09:10:20;;;;;;;3.63;2.28;;;;;;;;;;5066296;28;20055;-69
2022/07/25 09:12:52;;;;;;;3.53;2.13;;;;;;;;;;5067562;28;20465;-69
2022/07/25 09:15:18;;;;;;;;;;;;;;;;;;5083453;28;20086;-69
2022/07/25 09:17:49;;;;;;;5.55;2.15;;;;;;;;;;5086798;28;19966;-69
2022/07/25 09:20:15;;;;;;;5.30;2.63;;;;;;;;;;5092143;27;20051;-69
2022/07/25 09:22:45;;;;;;;4.30;1.88;;;;;;;;;;5084266;28;20036;-69
2022/07/25 09:25:21;;;;;;;4.93;2.40;;;;;;;;;;5083185;28;20044;-69
2022/07/25 09:27:47;;;;;;;4.50;2.20;;;;;;;;;;5085572;28;20296;-69
2022/07/25 09:30:14;;;;;;;7.75;3.53;;;;;;;;;;5087539;28;20128;-69
2022/07/25 09:32:41;;;;;;;6.82;3.03;;;;;;;;;;5086218;28;20454;-69
2022/07/25 09:35:07;;;;;;;4.35;2.65;;;;;;;;;;5073871;28;20433;-69
2022/07/25 09:37:34;;;;;;;7.65;3.03;;;;;;;;;;5083784;28;20507;-69
2022/07/25 09:40:00;;;;;;;4.05;2.47;;;;;;;;;;5085794;28;20516;-69
2022/07/25 09:42:31;;;;;;;5.20;2.50;;;;;;;;;;5085921;28;20118;-69
2022/07/25 09:44:57;;;;;;;6.95;2.72;;;;;;;;;;5080935;28;20383;-69
2022/07/25 09:47:23;;;;;;;7.75;3.17;;;;;;;;;;5084567;28;20043;-69
2022/07/25 09:49:49;;;;;;;7.13;3.22;;;;;;;;;;5084173;28;20067;-69
2022/07/25 09:52:16;;;;;;;8.02;2.70;;;;;;;;;;5103479;27;20047;-69
2022/07/25 09:54:43;;;;;;;4.95;3.30;;;;;;;;;;5086704;28;20051;-69
2022/07/25 09:57:09;;;;;;;9.45;2.92;;;;;;;;;;5083129;28;20036;-69
2022/07/25 09:59:36;;;;;;;9.70;3.17;;;;;;;;;;5067293;28;20131;-69
2022/07/25 10:02:03;;;;;;;7.10;2.92;;;;;;;;;;5086152;28;20039;-69
2022/07/25 10:04:44;;;;;;;9.07;3.00;;;;;;;;;;5085971;28;20083;-69
2022/07/25 10:07:13;;;;;;;6.88;3.15;;;;;;;;;;5084375;28;20059;-68
2022/07/25 10:09:50;;;;;;;6.15;3.28;;;;;;;;;;5102407;28;20088;-69
2022/07/25 10:12:20;;;;;;;6.97;3.67;;;;;;;;;;5094959;28;20513;-69
2022/07/25 10:15:06;;;;;;;9.60;3.05;;;;;;;;;;5079066;28;20112;-69
2022/07/25 10:17:32;;;;;;;8.45;3.33;;;;;;;;;;5079651;28;20035;-69
2022/07/25 10:20:00;;;;;;;6.63;3.53;;;;;;;;;;5080327;28;20345;-69
2022/07/25 10:22:39;;;;;;;5.68;3.33;;;;;;;;;;5078930;28;20545;-69
2022/07/25 10:25:13;;;;;;;8.52;3.17;;;;;;;;;;5076274;28;20079;-69
2022/07/25 10:27:42;;;;;;;8.07;3.35;;;;;;;;;;5079980;28;20052;-69
2022/07/25 10:30:10;;;;;;;9.75;3.72;;;;;;;;;;5085786;28;20618;-69
2022/07/25 10:32:36;;;;;;;6.63;3.03;;;;;;;;;;5081819;28;20468;-69
2022/07/25 10:35:11;;;;;;;6.90;3.25;;;;;;;;;;5077547;28;20567;-69
2022/07/25 10:37:39;;;;;;;5.72;3.17;;;;;;;;;;5079432;28;20505;-69
2022/07/25 10:40:06;;;;;;;10.93;3.75;;;;;;;;;;5087777;28;20047;-69
2022/07/25 10:42:32;;;;;;;10.02;2.92;;;;;;;;;;5086220;28;20054;-69
2022/07/25 10:45:04;;;;;;;11.15;3.28;;;;;;;;;;5107465;27;20043;-69
2022/07/25 10:47:37;;;;;;;9.02;3.53;;;;;;;;;;5084446;28;20043;-69
2022/07/25 10:50:03;;;;;;;10.20;3.92;;;;;;;;;;5087738;28;20060;-69
2022/07/25 10:52:30;;;;;;;6.15;2.40;;;;;;;;;;5085740;28;20115;-69
2022/07/25 10:54:57;;;;;;;20.42;3.95;;;;;;;;;;5091838;28;20040;-69
2022/07/25 10:57:24;;;;;;;11.57;3.33;;;;;;;;;;5089985;28;20040;-69
2022/07/25 10:59:51;;;;;;;6.57;2.60;;;;;;;;;;5090263;28;20036;-69
2022/07/25 11:02:17;;;;;;;5.53;2.97;;;;;;;;;;5085920;28;20048;-69
2022/07/25 11:04:45;;;;;;;12.82;3.28;;;;;;;;;;5107230;27;20480;-69
2022/07/25 11:07:12;;;;;;;7.22;3.42;;;;;;;;;;5090005;28;20058;-69
2022/07/25 11:09:39;;;;;;;8.35;3.13;;;;;;;;;;5090314;28;20139;-69
2022/07/25 11:12:06;;;;;;;5.75;2.97;;;;;;;;;;5092807;28;20090;-69
2022/07/25 11:14:36;;;;;;;9.98;3.42;;;;;;;;;;5092545;28;20147;-69
2022/07/25 11:17:11;;;;;;;4.95;2.22;;;;;;;;;;5089283;28;20036;-68
2022/07/25 11:19:37;;;;;;;6.35;3.60;;;;;;;;;;5103205;27;20047;-69
2022/07/25 11:22:04;;;;;;;10.73;3.53;;;;;;;;;;5096234;28;20070;-69
2022/07/25 11:24:34;;;;;;;6.05;3.10;;;;;;;;;;5091494;28;20044;-69
2022/07/25 11:27:02;;;;;;;7.78;3.78;;;;;;;;;;5078162;28;20374;-69
2022/07/25 11:29:28;;;;;;;9.27;3.25;;;;;;;;;;5088495;28;20029;-69
2022/07/25 11:31:55;;;;;;;16.42;3.25;;;;;;;;;;5105766;27;20371;-69
2022/07/25 11:34:23;;;;;;;8.35;3.60;;;;;;;;;;5097769;28;20040;-69
2022/07/25 11:36:50;;;;;;;9.02;3.15;;;;;;;;;;5103454;27;20092;-69
2022/07/25 11:39:16;;;;;;;7.10;2.90;;;;;;;;;;5086150;28;20133;-69
2022/07/25 11:41:43;;;;;;;10.60;4.18;;;;;;;;;;5098458;27;20066;-69
2022/07/25 11:44:09;;;;;;;8.73;2.95;;;;;;;;;;5091988;28;20094;-68
2022/07/25 11:46:46;;;;;;;9.10;3.58;;;;;;;;;;5108018;27;20054;-68
2022/07/25 11:49:13;;;;;;;7.60;2.97;;;;;;;;;;5087377;28;20413;-68
2022/07/25 11:51:40;;;;;;;6.13;3.35;;;;;;;;;;5090543;28;20040;-68
2022/07/25 11:54:12;;;;;;;9.05;3.45;;;;;;;;;;5094639;28;20335;-68
2022/07/25 11:56:38;;;;;;;6.40;2.95;;;;;;;;;;5088861;28;20622;-68
2022/07/25 11:59:04;;;;;;;5.88;2.65;;;;;;;;;;5097292;28;20494;-68
2022/07/25 12:01:38;;;;;;;7.55;3.00;;;;;;;;;;5107755;27;20044;-69
2022/07/25 12:04:09;;;;;;;6.47;2.60;;;;;;;;;;5076581;28;20052;-69
2022/07/25 12:06:35;;;;;;;7.50;2.92;;;;;;;;;;5098152;28;20040;-68
2022/07/25 12:09:12;;;;;;;5.32;3.00;;;;;;;;;;5079156;28;20053;-69
2022/07/25 12:11:38;;;;;;;5.75;3.03;;;;;;;;;;5085896;28;20134;-69
2022/07/25 12:14:05;;;;;;;10.52;3.70;;;;;;;;;;5081321;28;20096;-69
2022/07/25 12:16:32;;;;;;;8.05;2.80;;;;;;;;;;5079096;28;20075;-69
2022/07/25 12:18:58;;;;;;;5.18;2.55;;;;;;;;;;5087387;28;20040;-69
2022/07/25 12:21:25;;;;;;;7.68;3.00;;;;;;;;;;5089839;28;20401;-68
2022/07/25 12:23:51;;;;;;;6.20;2.70;;;;;;;;;;5084930;28;20093;-69
2022/07/25 12:26:18;;;;;;;5.28;2.97;;;;;;;;;;5109125;27;20444;-68
2022/07/25 12:28:44;;;;;;;7.93;2.95;;;;;;;;;;5079255;28;20062;-69
2022/07/25 12:31:10;;;;;;;7.90;2.97;;;;;;;;;;5106043;27;20047;-69
2022/07/25 12:33:37;;;;;;;7.28;3.17;;;;;;;;;;5090789;28;20035;-69
2022/07/25 12:36:03;;;;;;;10.07;3.50;;;;;;;;;;5084884;28;20043;-69
2022/07/25 12:38:30;;;;;;;9.20;3.30;;;;;;;;;;5093236;28;20504;-69
2022/07/25 12:40:56;;;;;;;8.20;3.65;;;;;;;;;;5089027;28;20032;-68
2022/07/25 12:43:22;;;;;;;7.85;3.60;;;;;;;;;;5085634;28;20051;-69
2022/07/25 12:45:48;;;;;;;8.30;3.42;;;;;;;;;;5090719;28;20056;-69
2022/07/25 12:48:15;;;;;;;6.78;3.05;;;;;;;;;;5097705;28;20036;-69
2022/07/25 12:50:42;;;;;;;7.47;2.60;;;;;;;;;;5093743;28;20050;-69
2022/07/25 12:53:08;;;;;;;8.57;3.42;;;;;;;;;;5090837;28;20496;-69
2022/07/25 12:55:34;;;;;;;11.77;3.08;;;;;;;;;;5089012;28;20064;-69
2022/07/25 12:58:00;;;;;;;7.38;3.35;;;;;;;;;;5092745;28;20127;-69
2022/07/25 13:00:27;;;;;;;7.95;3.03;;;;;;;;;;5099713;28;20083;-69
2022/07/25 13:02:56;;;;;;;8.02;2.95;;;;;;;;;;5094566;28;20088;-69
2022/07/25 13:05:24;;;;;;;10.90;4.00;;;;;;;;;;5079878;28;20082;-69
2022/07/25 13:07:50;;;;;;;7.25;3.38;;;;;;;;;;5104913;27;20047;-69
2022/07/25 13:10:17;;;;;;;6.15;2.50;;;;;;;;;;5090906;28;20040;-69
2022/07/25 13:12:44;;;;;;;30.50;4.25;;;;;;;;;;5075998;28;20043;-68
2022/07/25 13:15:10;;;;;;;6.13;3.28;;;;;;;;;;5097273;28;20040;-68
2022/07/25 13:17:36;;;;;;;9.77;3.67;;;;;;;;;;5113014;27;20047;-69
2022/07/25 13:20:03;;;;;;;8.77;3.30;;;;;;;;;;5088468;28;20474;-69
2022/07/25 13:22:29;;;;;;;7.60;3.47;;;;;;;;;;5088384;27;20036;-68
2022/07/25 13:24:55;;;;;;;5.78;3.35;;;;;;;;;;5095216;28;20047;-68
2022/07/25 13:27:22;;;;;;;18.33;4.00;;;;;;;;;;5088743;28;20123;-68
2022/07/25 13:29:56;;;;;;;6.47;3.05;;;;;;;;;;5089867;28;20032;-68
2022/07/25 13:32:23;;;;;;;9.52;3.25;;;;;;;;;;5089926;28;20035;-68
2022/07/25 13:34:50;;;;;;;9.85;3.35;;;;;;;;;;5089735;28;20535;-68
2022/07/25 13:37:16;;;;;;;6.75;3.10;;;;;;;;;;5088803;28;20046;-68
2022/07/25 13:39:42;;;;;;;6.85;3.03;;;;;;;;;;5106589;27;20046;-68
2022/07/25 13:42:08;;;;;;;5.97;3.10;;;;;;;;;;5087747;28;20047;-68
2022/07/25 13:44:35;;;;;;;7.35;3.85;;;;;;;;;;5086389;28;20226;-68
2022/07/25 13:47:01;;;;;;;9.82;3.63;;;;;;;;;;5084761;28;20036;-69
2022/07/25 13:49:27;;;;;;;10.65;3.78;;;;;;;;;;5074235;28;20185;-68
2022/07/25 13:51:53;;;;;;;9.55;4.00;;;;;;;;;;5076356;28;20506;-69
2022/07/25 13:54:20;;;;;;;11.15;3.78;;;;;;;;;;5087768;28;20277;-69
2022/07/25 13:56:46;;;;;;;7.78;3.55;;;;;;;;;;5086432;28;20514;-69
2022/07/25 13:59:12;;;;;;;10.73;4.50;;;;;;;;;;5103487;27;20051;-69
2022/07/25 14:01:39;;;;;;;8.00;4.20;;;;;;;;;;5085551;28;20145;-69
2022/07/25 14:04:05;;;;;;;12.07;3.85;;;;;;;;;;5087902;28;20051;-69
2022/07/25 14:06:31;;;;;;;10.45;4.50;;;;;;;;;;5097919;28;20051;-68
2022/07/25 14:08:57;;;;;;;7.97;3.60;;;;;;;;;;5090368;28;20076;-69
2022/07/25 14:11:23;;;;;;;9.55;3.83;;;;;;;;;;5108076;28;20052;-68
2022/07/25 14:13:50;;;;;;;7.78;3.38;;;;;;;;;;5091325;28;20067;-68
2022/07/25 14:16:18;;;;;;;6.53;2.92;;;;;;;;;;5091243;28;20032;-68
2022/07/25 14:18:44;;;;;;;7.82;3.13;;;;;;;;;;5087823;28;20078;-69
2022/07/25 14:21:11;;;;;;;5.88;2.80;;;;;;;;;;5085326;28;20068;-68
2022/07/25 14:23:37;;;;;;;7.03;3.00;;;;;;;;;;5087288;28;20126;-68
2022/07/25 14:26:03;;;;;;;21.50;4.88;;;;;;;;;;5096443;28;20060;-68
2022/07/25 14:28:29;;;;;;;4.90;2.40;;;;;;;;;;5091177;28;20458;-68
2022/07/25 14:30:56;;;;;;;9.00;4.22;;;;;;;;;;5105582;28;20331;-69
2022/07/25 14:33:22;;;;;;;5.35;2.90;;;;;;;;;;5091434;28;20032;-68
2022/07/25 14:35:49;;;;;;;8.60;3.50;;;;;;;;;;5084952;28;20511;-68
2022/07/25 14:38:15;;;;;;;6.63;3.20;;;;;;;;;;5091029;28;20485;-68
2022/07/25 14:40:41;;;;;;;9.38;3.42;;;;;;;;;;5092020;28;20181;-68